sensor_id;sensor_type;location;lat;lon;timestamp;P1;durP1;ratioP1;P2;durP2;ratioP2
3068;SDS011;1545;51.728;8.796;2023-06-19T00:01:46;14.60;;;11.33;;
3068;SDS011;1545;51.728;8.796;2023-06-19T00:04:11;16.10;;;11.83;;
3068;SDS011;1545;51.728;8.796;2023-06-19T00:06:37;14.73;;;11.70;;
3068;SDS011;1545;51.728;8.796;2023-06-19T00:09:03;18.07;;;12.30;;
3068;SDS011;1545;51.728;8.796;2023-06-19T00:11:28;19.10;;;12.43;;
3068;SDS011;1545;51.728;8.796;2023-06-19T00:13:54;18.33;;;12.63;;
3068;SDS011;1545;51.728;8.796;2023-06-19T00:16:20;19.00;;;12.27;;
3068;SDS011;1545;51.728;8.796;2023-06-19T00:18:46;17.83;;;12.27;;
3068;SDS011;1545;51.728;8.796;2023-06-19T00:21:11;25.33;;;13.10;;
3068;SDS011;1545;51.728;8.796;2023-06-19T00:23:37;19.43;;;13.20;;
3068;SDS011;1545;51.728;8.796;2023-06-19T00:26:03;19.30;;;12.17;;
3068;SDS011;1545;51.728;8.796;2023-06-19T00:28:29;16.17;;;12.37;;
3068;SDS011;1545;51.728;8.796;2023-06-19T00:30:55;21.10;;;13.17;;
3068;SDS011;1545;51.728;8.796;2023-06-19T00:33:21;16.77;;;12.27;;
3068;SDS011;1545;51.728;8.796;2023-06-19T00:35:47;16.73;;;12.47;;
3068;SDS011;1545;51.728;8.796;2023-06-19T00:38:14;15.47;;;12.10;;
3068;SDS011;1545;51.728;8.796;2023-06-19T00:40:40;19.83;;;11.90;;
3068;SDS011;1545;51.728;8.796;2023-06-19T00:43:05;18.17;;;12.77;;
3068;SDS011;1545;51.728;8.796;2023-06-19T00:45:31;16.77;;;12.63;;
3068;SDS011;1545;51.728;8.796;2023-06-19T00:47:57;16.27;;;11.53;;
3068;SDS011;1545;51.728;8.796;2023-06-19T00:50:24;17.93;;;12.70;;
3068;SDS011;1545;51.728;8.796;2023-06-19T00:52:50;16.57;;;12.53;;
3068;SDS011;1545;51.728;8.796;2023-06-19T00:55:16;22.17;;;11.63;;
3068;SDS011;1545;51.728;8.796;2023-06-19T00:57:42;17.93;;;11.87;;
3068;SDS011;1545;51.728;8.796;2023-06-19T01:00:09;15.20;;;12.40;;
3068;SDS011;1545;51.728;8.796;2023-06-19T01:02:37;15.20;;;11.73;;
3068;SDS011;1545;51.728;8.796;2023-06-19T01:05:03;21.77;;;12.07;;
3068;SDS011;1545;51.728;8.796;2023-06-19T01:10:07;16.60;;;11.87;;
3068;SDS011;1545;51.728;8.796;2023-06-19T01:12:48;15.50;;;11.83;;
3068;SDS011;1545;51.728;8.796;2023-06-19T01:15:20;15.47;;;12.07;;
3068;SDS011;1545;51.728;8.796;2023-06-19T01:17:47;18.47;;;12.67;;
3068;SDS011;1545;51.728;8.796;2023-06-19T01:20:14;16.33;;;11.50;;
3068;SDS011;1545;51.728;8.796;2023-06-19T01:22:40;19.13;;;12.43;;
3068;SDS011;1545;51.728;8.796;2023-06-19T01:25:08;17.00;;;12.63;;
3068;SDS011;1545;51.728;8.796;2023-06-19T01:27:34;17.67;;;12.40;;
3068;SDS011;1545;51.728;8.796;2023-06-19T01:30:01;16.63;;;12.63;;
3068;SDS011;1545;51.728;8.796;2023-06-19T01:35:07;14.53;;;11.37;;
3068;SDS011;1545;51.728;8.796;2023-06-19T01:37:34;19.30;;;12.10;;
3068;SDS011;1545;51.728;8.796;2023-06-19T01:40:02;20.07;;;13.20;;
3068;SDS011;1545;51.728;8.796;2023-06-19T01:42:30;15.47;;;11.70;;
3068;SDS011;1545;51.728;8.796;2023-06-19T01:44:57;17.70;;;12.87;;
3068;SDS011;1545;51.728;8.796;2023-06-19T01:47:23;15.93;;;12.63;;
3068;SDS011;1545;51.728;8.796;2023-06-19T01:49:48;17.47;;;12.47;;
3068;SDS011;1545;51.728;8.796;2023-06-19T01:52:14;18.97;;;11.80;;
3068;SDS011;1545;51.728;8.796;2023-06-19T01:54:40;16.37;;;12.50;;
3068;SDS011;1545;51.728;8.796;2023-06-19T01:57:05;21.13;;;12.33;;
3068;SDS011;1545;51.728;8.796;2023-06-19T01:59:31;16.27;;;12.20;;
3068;SDS011;1545;51.728;8.796;2023-06-19T02:01:57;21.90;;;13.13;;
3068;SDS011;1545;51.728;8.796;2023-06-19T02:04:22;16.30;;;12.07;;
3068;SDS011;1545;51.728;8.796;2023-06-19T02:06:48;21.00;;;12.57;;
3068;SDS011;1545;51.728;8.796;2023-06-19T02:09:13;15.17;;;12.17;;
3068;SDS011;1545;51.728;8.796;2023-06-19T02:11:39;15.97;;;11.97;;
3068;SDS011;1545;51.728;8.796;2023-06-19T02:14:04;20.00;;;12.23;;
3068;SDS011;1545;51.728;8.796;2023-06-19T02:16:30;17.17;;;12.27;;
3068;SDS011;1545;51.728;8.796;2023-06-19T02:18:55;17.10;;;12.80;;
3068;SDS011;1545;51.728;8.796;2023-06-19T02:21:21;17.23;;;13.23;;
3068;SDS011;1545;51.728;8.796;2023-06-19T02:23:47;18.27;;;12.47;;
3068;SDS011;1545;51.728;8.796;2023-06-19T02:26:13;16.60;;;11.90;;
3068;SDS011;1545;51.728;8.796;2023-06-19T02:28:38;17.90;;;12.53;;
3068;SDS011;1545;51.728;8.796;2023-06-19T02:31:04;18.40;;;12.73;;
3068;SDS011;1545;51.728;8.796;2023-06-19T02:33:29;17.53;;;12.60;;
3068;SDS011;1545;51.728;8.796;2023-06-19T02:35:55;17.77;;;12.50;;
3068;SDS011;1545;51.728;8.796;2023-06-19T02:38:23;18.87;;;12.50;;
3068;SDS011;1545;51.728;8.796;2023-06-19T02:40:55;18.27;;;13.07;;
3068;SDS011;1545;51.728;8.796;2023-06-19T02:43:26;23.37;;;13.17;;
3068;SDS011;1545;51.728;8.796;2023-06-19T02:45:51;20.30;;;12.90;;
3068;SDS011;1545;51.728;8.796;2023-06-19T02:48:17;21.73;;;12.30;;
3068;SDS011;1545;51.728;8.796;2023-06-19T02:50:42;18.50;;;13.00;;
3068;SDS011;1545;51.728;8.796;2023-06-19T02:53:08;18.40;;;12.93;;
3068;SDS011;1545;51.728;8.796;2023-06-19T02:55:33;22.67;;;13.47;;
3068;SDS011;1545;51.728;8.796;2023-06-19T02:57:59;21.77;;;13.30;;
3068;SDS011;1545;51.728;8.796;2023-06-19T03:00:25;17.17;;;13.77;;
3068;SDS011;1545;51.728;8.796;2023-06-19T03:02:53;17.80;;;13.13;;
3068;SDS011;1545;51.728;8.796;2023-06-19T03:05:19;18.43;;;13.00;;
3068;SDS011;1545;51.728;8.796;2023-06-19T03:07:44;19.33;;;13.20;;
3068;SDS011;1545;51.728;8.796;2023-06-19T03:10:10;16.13;;;12.63;;
3068;SDS011;1545;51.728;8.796;2023-06-19T03:12:35;16.37;;;12.70;;
3068;SDS011;1545;51.728;8.796;2023-06-19T03:15:01;19.93;;;13.00;;
3068;SDS011;1545;51.728;8.796;2023-06-19T03:17:27;17.53;;;13.87;;
3068;SDS011;1545;51.728;8.796;2023-06-19T03:19:52;20.93;;;12.70;;
3068;SDS011;1545;51.728;8.796;2023-06-19T03:22:19;21.47;;;12.97;;
3068;SDS011;1545;51.728;8.796;2023-06-19T03:24:45;16.13;;;12.77;;
3068;SDS011;1545;51.728;8.796;2023-06-19T03:27:10;18.50;;;13.67;;
3068;SDS011;1545;51.728;8.796;2023-06-19T03:29:36;17.30;;;12.53;;
3068;SDS011;1545;51.728;8.796;2023-06-19T03:32:01;17.33;;;12.97;;
3068;SDS011;1545;51.728;8.796;2023-06-19T03:34:27;14.77;;;12.43;;
3068;SDS011;1545;51.728;8.796;2023-06-19T03:36:52;17.27;;;13.20;;
3068;SDS011;1545;51.728;8.796;2023-06-19T03:39:18;19.47;;;13.60;;
3068;SDS011;1545;51.728;8.796;2023-06-19T03:41:43;19.03;;;13.40;;
3068;SDS011;1545;51.728;8.796;2023-06-19T03:44:09;16.90;;;13.10;;
3068;SDS011;1545;51.728;8.796;2023-06-19T03:46:34;17.87;;;12.90;;
3068;SDS011;1545;51.728;8.796;2023-06-19T03:49:00;21.83;;;13.47;;
3068;SDS011;1545;51.728;8.796;2023-06-19T03:51:25;20.33;;;12.80;;
3068;SDS011;1545;51.728;8.796;2023-06-19T03:53:51;24.60;;;12.27;;
3068;SDS011;1545;51.728;8.796;2023-06-19T03:56:16;23.10;;;12.57;;
3068;SDS011;1545;51.728;8.796;2023-06-19T03:58:42;23.27;;;13.07;;
3068;SDS011;1545;51.728;8.796;2023-06-19T04:01:07;22.63;;;13.60;;
3068;SDS011;1545;51.728;8.796;2023-06-19T04:03:33;24.70;;;14.50;;
3068;SDS011;1545;51.728;8.796;2023-06-19T04:05:58;18.43;;;14.03;;
3068;SDS011;1545;51.728;8.796;2023-06-19T04:08:24;26.73;;;14.20;;
3068;SDS011;1545;51.728;8.796;2023-06-19T04:10:50;20.80;;;13.57;;
3068;SDS011;1545;51.728;8.796;2023-06-19T04:13:15;22.40;;;14.47;;
3068;SDS011;1545;51.728;8.796;2023-06-19T04:15:41;20.87;;;14.83;;
3068;SDS011;1545;51.728;8.796;2023-06-19T04:18:09;20.33;;;14.57;;
3068;SDS011;1545;51.728;8.796;2023-06-19T04:20:34;23.77;;;14.20;;
3068;SDS011;1545;51.728;8.796;2023-06-19T04:23:00;26.83;;;14.33;;
3068;SDS011;1545;51.728;8.796;2023-06-19T04:25:26;22.43;;;14.27;;
3068;SDS011;1545;51.728;8.796;2023-06-19T04:27:51;23.93;;;15.33;;
3068;SDS011;1545;51.728;8.796;2023-06-19T04:30:17;25.70;;;15.47;;
3068;SDS011;1545;51.728;8.796;2023-06-19T04:32:42;18.70;;;13.63;;
3068;SDS011;1545;51.728;8.796;2023-06-19T04:35:08;19.47;;;14.20;;
3068;SDS011;1545;51.728;8.796;2023-06-19T04:37:34;16.73;;;13.90;;
3068;SDS011;1545;51.728;8.796;2023-06-19T04:40:00;22.00;;;14.33;;
3068;SDS011;1545;51.728;8.796;2023-06-19T04:42:26;19.13;;;14.33;;
3068;SDS011;1545;51.728;8.796;2023-06-19T04:44:52;19.80;;;14.60;;
3068;SDS011;1545;51.728;8.796;2023-06-19T04:47:19;19.83;;;14.43;;
3068;SDS011;1545;51.728;8.796;2023-06-19T04:49:46;20.30;;;14.53;;
3068;SDS011;1545;51.728;8.796;2023-06-19T04:52:12;18.57;;;13.97;;
3068;SDS011;1545;51.728;8.796;2023-06-19T04:54:37;17.23;;;13.07;;
3068;SDS011;1545;51.728;8.796;2023-06-19T04:57:03;18.50;;;13.53;;
3068;SDS011;1545;51.728;8.796;2023-06-19T04:59:29;16.90;;;13.20;;
3068;SDS011;1545;51.728;8.796;2023-06-19T05:01:58;17.23;;;13.10;;
3068;SDS011;1545;51.728;8.796;2023-06-19T05:04:24;16.00;;;12.57;;
3068;SDS011;1545;51.728;8.796;2023-06-19T05:06:50;14.77;;;12.17;;
3068;SDS011;1545;51.728;8.796;2023-06-19T05:09:16;19.03;;;12.70;;
3068;SDS011;1545;51.728;8.796;2023-06-19T05:11:42;21.00;;;12.80;;
3068;SDS011;1545;51.728;8.796;2023-06-19T05:14:07;15.50;;;12.20;;
3068;SDS011;1545;51.728;8.796;2023-06-19T05:16:33;17.43;;;12.20;;
3068;SDS011;1545;51.728;8.796;2023-06-19T05:18:59;19.40;;;11.77;;
3068;SDS011;1545;51.728;8.796;2023-06-19T05:21:24;12.63;;;10.83;;
3068;SDS011;1545;51.728;8.796;2023-06-19T05:23:50;20.83;;;11.20;;
3068;SDS011;1545;51.728;8.796;2023-06-19T05:26:17;24.38;;;10.90;;
3068;SDS011;1545;51.728;8.796;2023-06-19T05:28:43;14.88;;;10.98;;
3068;SDS011;1545;51.728;8.796;2023-06-19T05:31:09;11.88;;;9.80;;
3068;SDS011;1545;51.728;8.796;2023-06-19T05:33:34;16.73;;;10.00;;
3068;SDS011;1545;51.728;8.796;2023-06-19T05:36:00;16.50;;;10.32;;
3068;SDS011;1545;51.728;8.796;2023-06-19T05:38:26;20.50;;;10.38;;
3068;SDS011;1545;51.728;8.796;2023-06-19T05:40:53;15.05;;;10.25;;
3068;SDS011;1545;51.728;8.796;2023-06-19T05:43:18;16.38;;;10.15;;
3068;SDS011;1545;51.728;8.796;2023-06-19T05:45:44;16.90;;;9.80;;
3068;SDS011;1545;51.728;8.796;2023-06-19T05:48:09;19.23;;;10.63;;
3068;SDS011;1545;51.728;8.796;2023-06-19T05:50:35;12.98;;;9.77;;
3068;SDS011;1545;51.728;8.796;2023-06-19T05:53:00;20.77;;;10.30;;
3068;SDS011;1545;51.728;8.796;2023-06-19T05:55:26;14.45;;;10.10;;
3068;SDS011;1545;51.728;8.796;2023-06-19T05:57:55;10.88;;;9.98;;
3068;SDS011;1545;51.728;8.796;2023-06-19T06:00:21;12.98;;;9.75;;
3068;SDS011;1545;51.728;8.796;2023-06-19T06:02:47;13.23;;;9.00;;
3068;SDS011;1545;51.728;8.796;2023-06-19T06:05:13;9.75;;;9.00;;
3068;SDS011;1545;51.728;8.796;2023-06-19T06:07:39;13.27;;;8.27;;
3068;SDS011;1545;51.728;8.796;2023-06-19T06:10:05;13.98;;;8.10;;
3068;SDS011;1545;51.728;8.796;2023-06-19T06:12:33;11.75;;;7.97;;
3068;SDS011;1545;51.728;8.796;2023-06-19T06:15:00;11.98;;;8.25;;
3068;SDS011;1545;51.728;8.796;2023-06-19T06:17:30;13.00;;;7.70;;
3068;SDS011;1545;51.728;8.796;2023-06-19T06:19:56;11.93;;;7.50;;
3068;SDS011;1545;51.728;8.796;2023-06-19T06:22:21;12.80;;;7.35;;
3068;SDS011;1545;51.728;8.796;2023-06-19T06:24:47;14.10;;;7.32;;
3068;SDS011;1545;51.728;8.796;2023-06-19T06:27:13;9.35;;;7.20;;
3068;SDS011;1545;51.728;8.796;2023-06-19T06:29:38;14.98;;;7.20;;
3068;SDS011;1545;51.728;8.796;2023-06-19T06:32:04;8.98;;;6.90;;
3068;SDS011;1545;51.728;8.796;2023-06-19T06:34:31;7.72;;;6.72;;
3068;SDS011;1545;51.728;8.796;2023-06-19T06:36:58;9.23;;;6.60;;
3068;SDS011;1545;51.728;8.796;2023-06-19T06:39:23;8.38;;;6.55;;
3068;SDS011;1545;51.728;8.796;2023-06-19T06:41:49;8.95;;;7.13;;
3068;SDS011;1545;51.728;8.796;2023-06-19T06:44:15;7.55;;;6.80;;
3068;SDS011;1545;51.728;8.796;2023-06-19T06:46:40;6.93;;;6.60;;
3068;SDS011;1545;51.728;8.796;2023-06-19T06:49:06;10.45;;;6.72;;
3068;SDS011;1545;51.728;8.796;2023-06-19T06:51:31;10.25;;;6.97;;
3068;SDS011;1545;51.728;8.796;2023-06-19T06:53:57;15.88;;;6.82;;
3068;SDS011;1545;51.728;8.796;2023-06-19T06:56:22;9.80;;;6.63;;
3068;SDS011;1545;51.728;8.796;2023-06-19T06:58:48;10.68;;;6.38;;
3068;SDS011;1545;51.728;8.796;2023-06-19T07:01:13;13.10;;;5.95;;
3068;SDS011;1545;51.728;8.796;2023-06-19T07:03:39;9.75;;;6.45;;
3068;SDS011;1545;51.728;8.796;2023-06-19T07:06:04;27.17;;;6.35;;
3068;SDS011;1545;51.728;8.796;2023-06-19T07:08:30;9.65;;;6.47;;
3068;SDS011;1545;51.728;8.796;2023-06-19T07:10:55;10.90;;;6.45;;
3068;SDS011;1545;51.728;8.796;2023-06-19T07:13:21;11.45;;;6.30;;
3068;SDS011;1545;51.728;8.796;2023-06-19T07:15:47;14.50;;;6.88;;
3068;SDS011;1545;51.728;8.796;2023-06-19T07:18:12;8.35;;;6.78;;
3068;SDS011;1545;51.728;8.796;2023-06-19T07:20:38;7.15;;;6.40;;
3068;SDS011;1545;51.728;8.796;2023-06-19T07:23:03;13.05;;;6.57;;
3068;SDS011;1545;51.728;8.796;2023-06-19T07:25:29;11.00;;;7.00;;
3068;SDS011;1545;51.728;8.796;2023-06-19T07:27:54;8.25;;;6.38;;
3068;SDS011;1545;51.728;8.796;2023-06-19T07:30:20;14.38;;;6.97;;
3068;SDS011;1545;51.728;8.796;2023-06-19T07:32:45;12.18;;;6.88;;
3068;SDS011;1545;51.728;8.796;2023-06-19T07:35:11;22.65;;;8.35;;
3068;SDS011;1545;51.728;8.796;2023-06-19T07:37:37;30.10;;;7.78;;
3068;SDS011;1545;51.728;8.796;2023-06-19T07:40:02;15.82;;;7.45;;
3068;SDS011;1545;51.728;8.796;2023-06-19T07:42:28;10.85;;;7.88;;
3068;SDS011;1545;51.728;8.796;2023-06-19T07:44:54;16.70;;;7.43;;
3068;SDS011;1545;51.728;8.796;2023-06-19T07:47:19;13.35;;;7.68;;
3068;SDS011;1545;51.728;8.796;2023-06-19T07:49:45;13.80;;;7.78;;
3068;SDS011;1545;51.728;8.796;2023-06-19T07:52:11;10.30;;;7.85;;
3068;SDS011;1545;51.728;8.796;2023-06-19T07:54:47;10.85;;;7.22;;
3068;SDS011;1545;51.728;8.796;2023-06-19T07:57:17;12.68;;;8.18;;
3068;SDS011;1545;51.728;8.796;2023-06-19T07:59:43;13.32;;;7.55;;
3068;SDS011;1545;51.728;8.796;2023-06-19T08:02:09;9.38;;;7.20;;
3068;SDS011;1545;51.728;8.796;2023-06-19T08:04:35;8.18;;;6.60;;
3068;SDS011;1545;51.728;8.796;2023-06-19T08:07:01;15.27;;;6.80;;
3068;SDS011;1545;51.728;8.796;2023-06-19T08:09:26;14.90;;;6.80;;
3068;SDS011;1545;51.728;8.796;2023-06-19T08:11:52;9.13;;;6.60;;
3068;SDS011;1545;51.728;8.796;2023-06-19T08:14:17;8.40;;;6.57;;
3068;SDS011;1545;51.728;8.796;2023-06-19T08:16:43;11.48;;;6.35;;
3068;SDS011;1545;51.728;8.796;2023-06-19T08:19:08;9.32;;;7.03;;
3068;SDS011;1545;51.728;8.796;2023-06-19T08:21:34;11.98;;;6.88;;
3068;SDS011;1545;51.728;8.796;2023-06-19T08:23:59;11.50;;;6.35;;
3068;SDS011;1545;51.728;8.796;2023-06-19T08:26:24;14.57;;;6.70;;
3068;SDS011;1545;51.728;8.796;2023-06-19T08:28:50;8.23;;;7.03;;
3068;SDS011;1545;51.728;8.796;2023-06-19T08:31:15;7.03;;;5.80;;
3068;SDS011;1545;51.728;8.796;2023-06-19T08:33:41;13.48;;;6.25;;
3068;SDS011;1545;51.728;8.796;2023-06-19T08:36:07;12.07;;;6.57;;
3068;SDS011;1545;51.728;8.796;2023-06-19T08:38:33;9.75;;;7.05;;
3068;SDS011;1545;51.728;8.796;2023-06-19T08:40:58;8.15;;;6.70;;
3068;SDS011;1545;51.728;8.796;2023-06-19T08:43:24;9.13;;;7.03;;
3068;SDS011;1545;51.728;8.796;2023-06-19T08:45:59;12.25;;;6.43;;
3068;SDS011;1545;51.728;8.796;2023-06-19T08:48:34;13.27;;;6.35;;
3068;SDS011;1545;51.728;8.796;2023-06-19T08:51:03;14.05;;;6.70;;
3068;SDS011;1545;51.728;8.796;2023-06-19T08:53:29;12.50;;;6.63;;
3068;SDS011;1545;51.728;8.796;2023-06-19T08:55:58;9.07;;;6.28;;
3068;SDS011;1545;51.728;8.796;2023-06-19T08:58:24;16.38;;;5.85;;
3068;SDS011;1545;51.728;8.796;2023-06-19T09:00:51;9.18;;;5.90;;
3068;SDS011;1545;51.728;8.796;2023-06-19T09:03:20;11.30;;;5.68;;
3068;SDS011;1545;51.728;8.796;2023-06-19T09:05:49;7.30;;;5.35;;
3068;SDS011;1545;51.728;8.796;2023-06-19T09:08:21;22.67;;;5.97;;
3068;SDS011;1545;51.728;8.796;2023-06-19T09:13:28;9.75;;;6.53;;
3068;SDS011;1545;51.728;8.796;2023-06-19T09:15:59;6.95;;;4.82;;
3068;SDS011;1545;51.728;8.796;2023-06-19T09:18:29;10.45;;;5.22;;
3068;SDS011;1545;51.728;8.796;2023-06-19T09:20:56;9.85;;;4.60;;
3068;SDS011;1545;51.728;8.796;2023-06-19T09:23:22;5.43;;;4.18;;
3068;SDS011;1545;51.728;8.796;2023-06-19T09:25:51;6.13;;;4.25;;
3068;SDS011;1545;51.728;8.796;2023-06-19T09:28:25;7.13;;;3.80;;
3068;SDS011;1545;51.728;8.796;2023-06-19T09:33:25;6.53;;;4.30;;
3068;SDS011;1545;51.728;8.796;2023-06-19T09:35:52;4.78;;;4.10;;
3068;SDS011;1545;51.728;8.796;2023-06-19T09:38:21;7.63;;;4.35;;
3068;SDS011;1545;51.728;8.796;2023-06-19T09:40:49;6.00;;;4.25;;
3068;SDS011;1545;51.728;8.796;2023-06-19T09:43:18;4.13;;;3.53;;
3068;SDS011;1545;51.728;8.796;2023-06-19T09:45:48;6.20;;;3.70;;
3068;SDS011;1545;51.728;8.796;2023-06-19T09:48:20;5.68;;;4.40;;
3068;SDS011;1545;51.728;8.796;2023-06-19T09:50:51;7.03;;;3.92;;
3068;SDS011;1545;51.728;8.796;2023-06-19T09:53:20;4.47;;;3.90;;
3068;SDS011;1545;51.728;8.796;2023-06-19T09:55:48;6.40;;;3.50;;
3068;SDS011;1545;51.728;8.796;2023-06-19T09:58:15;7.68;;;3.90;;
3068;SDS011;1545;51.728;8.796;2023-06-19T10:00:45;7.15;;;3.80;;
3068;SDS011;1545;51.728;8.796;2023-06-19T10:03:12;4.93;;;4.22;;
3068;SDS011;1545;51.728;8.796;2023-06-19T10:05:39;4.38;;;4.05;;
3068;SDS011;1545;51.728;8.796;2023-06-19T10:08:05;6.93;;;4.20;;
3068;SDS011;1545;51.728;8.796;2023-06-19T10:10:31;5.07;;;4.05;;
3068;SDS011;1545;51.728;8.796;2023-06-19T10:12:59;10.50;;;4.00;;
3068;SDS011;1545;51.728;8.796;2023-06-19T10:15:44;5.00;;;3.80;;
3068;SDS011;1545;51.728;8.796;2023-06-19T10:18:17;6.97;;;4.07;;
3068;SDS011;1545;51.728;8.796;2023-06-19T10:20:44;4.85;;;3.80;;
3068;SDS011;1545;51.728;8.796;2023-06-19T10:25:47;6.38;;;4.05;;
3068;SDS011;1545;51.728;8.796;2023-06-19T10:28:28;4.25;;;3.90;;
3068;SDS011;1545;51.728;8.796;2023-06-19T10:33:29;7.88;;;4.28;;
3068;SDS011;1545;51.728;8.796;2023-06-19T10:35:58;5.05;;;3.80;;
3068;SDS011;1545;51.728;8.796;2023-06-19T10:38:27;5.50;;;4.15;;
3068;SDS011;1545;51.728;8.796;2023-06-19T10:40:54;10.45;;;3.92;;
3068;SDS011;1545;51.728;8.796;2023-06-19T10:43:21;13.45;;;4.53;;
3068;SDS011;1545;51.728;8.796;2023-06-19T10:45:50;4.82;;;4.15;;
3068;SDS011;1545;51.728;8.796;2023-06-19T10:48:19;6.75;;;4.25;;
3068;SDS011;1545;51.728;8.796;2023-06-19T10:50:46;7.30;;;4.22;;
3068;SDS011;1545;51.728;8.796;2023-06-19T10:53:22;6.38;;;4.40;;
3068;SDS011;1545;51.728;8.796;2023-06-19T10:55:56;8.13;;;4.18;;
3068;SDS011;1545;51.728;8.796;2023-06-19T10:58:26;6.18;;;4.55;;
3068;SDS011;1545;51.728;8.796;2023-06-19T11:00:52;6.78;;;4.82;;
3068;SDS011;1545;51.728;8.796;2023-06-19T11:03:18;9.40;;;4.80;;
3068;SDS011;1545;51.728;8.796;2023-06-19T11:05:45;5.75;;;4.32;;
3068;SDS011;1545;51.728;8.796;2023-06-19T11:08:16;6.18;;;4.80;;
3068;SDS011;1545;51.728;8.796;2023-06-19T11:10:51;10.63;;;4.65;;
3068;SDS011;1545;51.728;8.796;2023-06-19T11:13:17;9.40;;;4.78;;
3068;SDS011;1545;51.728;8.796;2023-06-19T11:15:44;7.45;;;4.72;;
3068;SDS011;1545;51.728;8.796;2023-06-19T11:18:10;10.52;;;5.28;;
3068;SDS011;1545;51.728;8.796;2023-06-19T11:20:43;7.78;;;4.40;;
3068;SDS011;1545;51.728;8.796;2023-06-19T11:23:10;5.75;;;4.95;;
3068;SDS011;1545;51.728;8.796;2023-06-19T11:25:36;5.72;;;4.70;;
3068;SDS011;1545;51.728;8.796;2023-06-19T11:28:03;5.05;;;4.53;;
3068;SDS011;1545;51.728;8.796;2023-06-19T11:30:43;9.98;;;4.80;;
3068;SDS011;1545;51.728;8.796;2023-06-19T11:33:20;7.10;;;4.40;;
3068;SDS011;1545;51.728;8.796;2023-06-19T11:35:53;5.45;;;4.50;;
3068;SDS011;1545;51.728;8.796;2023-06-19T11:38:23;13.10;;;4.68;;
3068;SDS011;1545;51.728;8.796;2023-06-19T11:40:49;5.88;;;4.63;;
3068;SDS011;1545;51.728;8.796;2023-06-19T11:43:25;4.10;;;3.90;;
3068;SDS011;1545;51.728;8.796;2023-06-19T11:45:52;6.38;;;4.18;;
3068;SDS011;1545;51.728;8.796;2023-06-19T11:48:24;12.88;;;5.43;;
3068;SDS011;1545;51.728;8.796;2023-06-19T11:50:51;12.23;;;4.53;;
3068;SDS011;1545;51.728;8.796;2023-06-19T11:53:18;12.35;;;5.00;;
3068;SDS011;1545;51.728;8.796;2023-06-19T11:55:44;7.63;;;5.22;;
3068;SDS011;1545;51.728;8.796;2023-06-19T11:58:10;5.53;;;4.45;;
3068;SDS011;1545;51.728;8.796;2023-06-19T12:00:36;5.90;;;4.40;;
3068;SDS011;1545;51.728;8.796;2023-06-19T12:03:02;5.03;;;4.60;;
3068;SDS011;1545;51.728;8.796;2023-06-19T12:05:28;5.85;;;4.45;;
3068;SDS011;1545;51.728;8.796;2023-06-19T12:07:53;7.07;;;4.30;;
3068;SDS011;1545;51.728;8.796;2023-06-19T12:10:19;6.72;;;4.05;;
3068;SDS011;1545;51.728;8.796;2023-06-19T12:12:44;4.35;;;3.88;;
3068;SDS011;1545;51.728;8.796;2023-06-19T12:15:10;7.30;;;4.53;;
3068;SDS011;1545;51.728;8.796;2023-06-19T12:17:35;4.80;;;3.97;;
3068;SDS011;1545;51.728;8.796;2023-06-19T12:20:02;5.20;;;3.97;;
3068;SDS011;1545;51.728;8.796;2023-06-19T12:22:31;6.03;;;4.03;;
3068;SDS011;1545;51.728;8.796;2023-06-19T12:24:58;6.10;;;3.72;;
3068;SDS011;1545;51.728;8.796;2023-06-19T12:27:23;5.88;;;4.50;;
3068;SDS011;1545;51.728;8.796;2023-06-19T12:29:48;5.65;;;4.68;;
3068;SDS011;1545;51.728;8.796;2023-06-19T12:32:14;6.20;;;4.30;;
3068;SDS011;1545;51.728;8.796;2023-06-19T12:34:39;5.97;;;4.50;;
3068;SDS011;1545;51.728;8.796;2023-06-19T12:37:05;4.68;;;4.40;;
3068;SDS011;1545;51.728;8.796;2023-06-19T12:39:31;4.95;;;4.10;;
3068;SDS011;1545;51.728;8.796;2023-06-19T12:41:57;9.20;;;4.63;;
3068;SDS011;1545;51.728;8.796;2023-06-19T12:44:23;10.07;;;4.57;;
3068;SDS011;1545;51.728;8.796;2023-06-19T12:46:49;9.63;;;4.10;;
3068;SDS011;1545;51.728;8.796;2023-06-19T12:49:15;6.35;;;4.38;;
3068;SDS011;1545;51.728;8.796;2023-06-19T12:51:40;4.35;;;4.00;;
3068;SDS011;1545;51.728;8.796;2023-06-19T12:54:06;13.55;;;4.50;;
3068;SDS011;1545;51.728;8.796;2023-06-19T12:56:31;6.05;;;4.18;;
3068;SDS011;1545;51.728;8.796;2023-06-19T12:58:57;5.22;;;4.25;;
3068;SDS011;1545;51.728;8.796;2023-06-19T13:01:22;8.70;;;4.78;;
3068;SDS011;1545;51.728;8.796;2023-06-19T13:03:48;4.75;;;4.38;;
3068;SDS011;1545;51.728;8.796;2023-06-19T13:06:13;9.68;;;4.85;;
3068;SDS011;1545;51.728;8.796;2023-06-19T13:08:39;8.13;;;4.70;;
3068;SDS011;1545;51.728;8.796;2023-06-19T13:11:04;5.10;;;4.70;;
3068;SDS011;1545;51.728;8.796;2023-06-19T13:13:30;6.75;;;4.57;;
3068;SDS011;1545;51.728;8.796;2023-06-19T13:15:55;9.20;;;4.97;;
3068;SDS011;1545;51.728;8.796;2023-06-19T13:18:21;7.85;;;5.13;;
3068;SDS011;1545;51.728;8.796;2023-06-19T13:20:46;7.63;;;5.00;;
3068;SDS011;1545;51.728;8.796;2023-06-19T13:23:13;7.80;;;5.00;;
3068;SDS011;1545;51.728;8.796;2023-06-19T13:25:39;6.75;;;5.32;;
3068;SDS011;1545;51.728;8.796;2023-06-19T13:28:04;9.25;;;5.13;;
3068;SDS011;1545;51.728;8.796;2023-06-19T13:30:30;9.52;;;5.57;;
3068;SDS011;1545;51.728;8.796;2023-06-19T13:32:55;11.60;;;5.78;;
3068;SDS011;1545;51.728;8.796;2023-06-19T13:35:21;5.45;;;5.22;;
3068;SDS011;1545;51.728;8.796;2023-06-19T13:37:47;13.55;;;4.82;;
3068;SDS011;1545;51.728;8.796;2023-06-19T13:40:12;8.95;;;5.95;;
3068;SDS011;1545;51.728;8.796;2023-06-19T13:42:38;6.70;;;5.30;;
3068;SDS011;1545;51.728;8.796;2023-06-19T13:45:03;6.35;;;5.32;;
3068;SDS011;1545;51.728;8.796;2023-06-19T13:47:29;6.20;;;5.68;;
3068;SDS011;1545;51.728;8.796;2023-06-19T13:49:55;16.27;;;6.28;;
3068;SDS011;1545;51.728;8.796;2023-06-19T13:52:21;7.18;;;5.70;;
3068;SDS011;1545;51.728;8.796;2023-06-19T13:54:46;9.88;;;5.40;;
3068;SDS011;1545;51.728;8.796;2023-06-19T13:57:12;10.45;;;5.72;;
3068;SDS011;1545;51.728;8.796;2023-06-19T13:59:37;14.60;;;6.10;;
3068;SDS011;1545;51.728;8.796;2023-06-19T14:02:03;8.65;;;5.32;;
3068;SDS011;1545;51.728;8.796;2023-06-19T14:04:29;7.25;;;5.43;;
3068;SDS011;1545;51.728;8.796;2023-06-19T14:06:54;7.15;;;6.10;;
3068;SDS011;1545;51.728;8.796;2023-06-19T14:09:20;7.07;;;5.57;;
3068;SDS011;1545;51.728;8.796;2023-06-19T14:11:45;12.38;;;6.18;;
3068;SDS011;1545;51.728;8.796;2023-06-19T14:14:11;10.20;;;6.03;;
3068;SDS011;1545;51.728;8.796;2023-06-19T14:16:36;18.10;;;5.80;;
3068;SDS011;1545;51.728;8.796;2023-06-19T14:19:02;10.00;;;5.90;;
3068;SDS011;1545;51.728;8.796;2023-06-19T14:21:27;11.75;;;5.88;;
3068;SDS011;1545;51.728;8.796;2023-06-19T14:23:53;8.80;;;5.35;;
3068;SDS011;1545;51.728;8.796;2023-06-19T14:26:19;9.80;;;5.88;;
3068;SDS011;1545;51.728;8.796;2023-06-19T14:28:44;6.45;;;5.30;;
3068;SDS011;1545;51.728;8.796;2023-06-19T14:31:10;9.95;;;5.65;;
3068;SDS011;1545;51.728;8.796;2023-06-19T14:33:36;9.00;;;5.60;;
3068;SDS011;1545;51.728;8.796;2023-06-19T14:36:03;8.02;;;5.72;;
3068;SDS011;1545;51.728;8.796;2023-06-19T14:38:29;8.38;;;5.50;;
3068;SDS011;1545;51.728;8.796;2023-06-19T14:40:58;8.55;;;5.70;;
3068;SDS011;1545;51.728;8.796;2023-06-19T14:43:25;5.47;;;5.10;;
3068;SDS011;1545;51.728;8.796;2023-06-19T14:45:51;6.10;;;5.45;;
3068;SDS011;1545;51.728;8.796;2023-06-19T14:48:17;10.73;;;5.82;;
3068;SDS011;1545;51.728;8.796;2023-06-19T14:50:42;11.38;;;5.60;;
3068;SDS011;1545;51.728;8.796;2023-06-19T14:53:08;10.18;;;5.50;;
3068;SDS011;1545;51.728;8.796;2023-06-19T14:55:33;5.70;;;5.40;;
3068;SDS011;1545;51.728;8.796;2023-06-19T14:57:59;8.98;;;5.57;;
3068;SDS011;1545;51.728;8.796;2023-06-19T15:00:24;10.02;;;5.53;;
3068;SDS011;1545;51.728;8.796;2023-06-19T15:02:50;8.02;;;5.03;;
3068;SDS011;1545;51.728;8.796;2023-06-19T15:05:15;7.15;;;5.00;;
3068;SDS011;1545;51.728;8.796;2023-06-19T15:07:41;6.70;;;5.05;;
3068;SDS011;1545;51.728;8.796;2023-06-19T15:10:06;12.50;;;4.85;;
3068;SDS011;1545;51.728;8.796;2023-06-19T15:12:32;7.88;;;4.95;;
3068;SDS011;1545;51.728;8.796;2023-06-19T15:14:59;8.77;;;4.80;;